METAR UND TAF INFORMATION
EDDG 180750Z VRB02KT 9999 FEW040 M03/M04 Q1018 NOSIG

 FLUGHAFENKARTE

 RUNWAY INFORMATION
Runway 07 Runway length 7119 ft Runway width 148 ft
Runway elevation 156 ft Runway displaced threshold 0 ft Runway heading 71
Runway 25 Runway length 7119 ft Runway width 148 ft
Runway elevation 159 ft Runway displaced threshold 656 ft Runway heading 251

 AIRPORT FREQUENCIES
Type AFIS Name LANGEN INF Frequency 123.525 MHZ
Type ATIS Name ATIS Frequency 127.175 MHZ
Type GND Name GND Frequency 121.875 MHZ
Type RDR Name LANGEN RAD Frequency 129.3 MHZ
Type TWR Name TWR Frequency 129.8 MHZ

 AIRPORT NEAR NAVIGATION AIDS
Type DME Name Munster Frequency 114050 KHZ
Type NDB Name Greven Frequency 305 KHZ
Type NDB Name Munster Frequency 371 KHZ



Version 5.0.0: Changelog

Impressum | Datenschutzerklärung

Virtual Airlines Manager